Time;durP1;ratioP1;P1;durP2;ratioP2;P2;SDS_P1;SDS_P2;PMS_P1;PMS_P2;Temp;Humidity;BMP_temperature;BMP_pressure;BME280_temperature;BME280_humidity;BME280_pressure;Samples;Min_cycle;Max_cycle;Signal;HPM_P1;HPM_P2
2021/07/20 00:00:38;;;;;;;10.85;7.55;;;17.30;68.00;;;17.19;52.44;95101.84;5002603;28;20678;-85
2021/07/20 00:03:09;;;;;;;13.73;7.78;;;17.20;67.90;;;17.21;52.88;95097.13;5002195;28;20658;-86
2021/07/20 00:05:44;;;;;;;10.13;7.28;;;17.30;68.10;;;17.24;52.54;95104.63;5003157;28;20216;-86
2021/07/20 00:08:12;;;;;;;9.50;7.18;;;17.30;68.20;;;17.28;53.05;95108.44;5019625;28;20275;-86
2021/07/20 00:10:55;;;;;;;13.93;7.63;;;17.40;68.30;;;17.28;52.56;95103.13;5002462;28;20212;-86
2021/07/20 00:13:22;;;;;;;11.27;7.30;;;17.30;68.60;;;17.32;52.95;95092.88;5001403;28;20732;-86
2021/07/20 00:15:52;;;;;;;10.02;6.90;;;17.40;68.10;;;17.34;52.83;95095.28;5002489;28;20228;-85
2021/07/20 00:18:27;;;;;;;11.40;7.93;;;17.40;68.20;;;17.35;52.78;95088.97;5018665;28;20216;-86
2021/07/20 00:20:54;;;;;;;10.95;6.90;;;17.40;68.50;;;17.34;53.16;95095.28;5001875;28;20311;-86
2021/07/20 00:23:23;;;;;;;10.82;8.00;;;17.40;68.10;;;17.37;53.01;95094.81;5000915;28;20224;-86
2021/07/20 00:25:51;;;;;;;9.88;7.32;;;17.40;68.20;;;17.36;52.96;95101.19;5002026;28;20215;-87
2021/07/20 00:28:19;;;;;;;10.98;7.50;;;17.40;68.10;;;17.34;53.15;95109.34;5001798;28;20299;-86
2021/07/20 00:30:48;;;;;;;15.27;8.45;;;17.50;68.10;;;17.29;53.30;95103.94;5002266;28;20227;-86
2021/07/20 00:33:16;;;;;;;11.10;7.88;;;17.50;68.10;;;17.26;53.13;95099.09;5018267;28;20208;-86
2021/07/20 00:35:45;;;;;;;11.82;7.53;;;17.40;68.00;;;17.18;52.82;95089.63;5002267;28;20231;-86
2021/07/20 00:38:15;;;;;;;9.75;7.55;;;17.40;68.00;;;17.16;52.95;95097.00;5001749;28;20192;-86
2021/07/20 00:40:49;;;;;;;12.15;7.60;;;17.30;68.00;;;17.12;52.75;95098.50;5018205;28;20234;-86
2021/07/20 00:43:16;;;;;;;10.88;7.55;;;17.30;68.00;;;17.08;52.89;95098.13;5018039;28;20184;-86
2021/07/20 00:45:45;;;;;;;9.55;7.00;;;17.30;68.10;;;17.05;53.51;95098.63;5017891;28;20228;-86
2021/07/20 00:48:13;;;;;;;12.23;7.45;;;17.30;68.20;;;17.01;53.45;95083.38;5017456;28;20246;-85
2021/07/20 00:50:45;;;;;;;12.05;7.75;;;17.20;68.10;;;16.98;53.41;95075.88;5001989;28;20216;-86
2021/07/20 00:53:14;;;;;;;10.32;6.57;;;17.20;68.30;;;16.96;53.02;95078.78;5001573;28;20204;-86
2021/07/20 00:55:50;;;;;;;9.82;7.20;;;17.20;68.20;;;16.93;53.09;95077.38;5018940;28;20231;-86
2021/07/20 00:58:18;;;;;;;11.27;6.60;;;17.20;68.20;;;16.95;53.07;95075.31;5001326;28;20227;-86
2021/07/20 01:00:49;;;;;;;8.35;6.32;;;17.10;68.20;;;16.93;53.22;95068.59;5017856;28;20234;-86
2021/07/20 01:03:16;;;;;;;12.07;7.25;;;17.10;68.30;;;16.93;53.53;95073.91;4985557;28;20200;-86
2021/07/20 01:05:45;;;;;;;9.00;7.03;;;17.10;68.40;;;16.93;53.29;95068.59;5001268;28;20208;-86
2021/07/20 01:08:15;;;;;;;11.05;7.32;;;17.10;68.50;;;16.92;53.74;95070.47;5017619;28;20642;-85
2021/07/20 01:10:44;;;;;;;9.77;7.28;;;17.10;68.50;;;16.92;53.63;95065.16;5033821;28;20216;-86
2021/07/20 01:13:15;;;;;;;11.15;6.97;;;17.10;68.70;;;16.90;53.14;95061.09;4986041;28;20553;-87
2021/07/20 01:15:48;;;;;;;11.82;7.30;;;17.20;69.50;;;16.87;53.48;95057.06;5001503;28;20224;-86
2021/07/20 01:18:19;;;;;;;9.13;6.88;;;17.00;68.40;;;16.86;53.61;95067.91;5001369;28;20201;-85
2021/07/20 01:20:47;;;;;;;11.32;7.68;;;17.00;68.40;;;16.76;53.79;95063.94;5017239;28;20231;-86
2021/07/20 01:23:24;;;;;;;11.65;7.47;;;17.00;69.30;;;16.74;54.24;95071.31;5000883;28;20612;-86
2021/07/20 01:25:55;;;;;;;12.20;7.47;;;17.00;68.60;;;16.75;53.98;95074.78;5017127;28;20269;-86
2021/07/20 01:28:25;;;;;;;13.13;8.70;;;17.00;68.70;;;16.71;54.91;95073.59;5017081;28;20200;-86
2021/07/20 01:31:02;;;;;;;9.68;7.22;;;16.90;69.00;;;16.67;54.82;95081.19;5000743;28;20220;-86
2021/07/20 01:33:32;;;;;;;10.45;7.70;;;17.00;69.20;;;16.65;55.33;95073.47;5000736;28;20192;-87
2021/07/20 01:36:05;;;;;;;12.55;8.13;;;17.00;69.30;;;16.65;54.96;95076.13;5033535;28;20235;-86
2021/07/20 01:38:36;;;;;;;13.25;8.38;;;16.90;69.30;;;16.62;55.81;95078.41;5000925;28;20196;-86
2021/07/20 01:41:13;;;;;;;12.65;8.13;;;16.90;69.50;;;16.61;55.42;95076.78;5000820;28;20701;-85
2021/07/20 01:43:46;;;;;;;9.65;7.85;;;16.90;69.80;;;16.59;55.53;95066.44;5016909;28;20267;-85
2021/07/20 01:46:15;;;;;;;12.80;8.05;;;16.80;69.60;;;16.60;55.37;95061.94;5000895;28;20767;-86
2021/07/20 01:48:51;;;;;;;11.07;7.70;;;16.80;69.50;;;16.57;55.24;95063.19;5033262;28;20192;-86
2021/07/20 01:51:23;;;;;;;9.73;7.55;;;16.80;69.50;;;16.56;55.10;95063.44;5000819;28;20608;-86
2021/07/20 01:53:53;;;;;;;13.80;7.90;;;16.80;69.60;;;16.57;54.97;95055.25;5016669;28;20204;-86
2021/07/20 01:56:22;;;;;;;10.43;7.63;;;16.80;69.70;;;16.57;55.10;95057.09;5000162;28;20220;-85
2021/07/20 01:58:49;;;;;;;12.63;7.78;;;16.80;69.60;;;16.55;55.14;95061.81;5000382;28;20250;-86
2021/07/20 02:01:46;;;;;;;12.73;7.72;;;16.80;69.70;;;16.54;55.24;95046.94;5002011;28;20196;-86
2021/07/20 02:10:14;;;;;;;11.77;6.90;;;16.70;69.70;;;16.44;55.47;95050.16;5016267;28;20228;-87
2021/07/20 02:13:13;;;;;;;11.15;7.45;;;16.70;69.60;;;16.40;55.28;95047.13;5019877;28;20207;-86
2021/07/20 02:15:59;;;;;;;9.90;6.95;;;16.60;69.70;;;16.35;55.33;95047.00;5032753;28;20724;-86
2021/07/20 02:18:29;;;;;;;8.60;6.93;;;16.60;69.60;;;16.32;55.66;95044.84;5016559;28;20180;-85
2021/07/20 02:21:05;;;;;;;10.85;7.25;;;16.60;69.60;;;16.31;55.51;95044.00;5001172;28;20230;-86
2021/07/20 02:23:47;;;;;;;9.07;7.05;;;16.60;69.80;;;16.26;55.17;95048.34;4987328;28;20210;-86
2021/07/20 02:26:14;;;;;;;9.88;7.05;;;16.50;69.60;;;16.25;55.43;95052.84;5032817;28;20250;-86
2021/07/20 02:28:44;;;;;;;8.88;7.20;;;16.50;69.60;;;16.21;55.95;95054.34;5016245;28;20192;-86
2021/07/20 02:31:14;;;;;;;11.10;7.75;;;16.50;69.70;;;16.16;55.79;95055.00;5000076;28;20212;-86
2021/07/20 02:33:42;;;;;;;10.75;7.30;;;16.40;69.60;;;16.11;55.56;95060.16;5016043;28;20242;-85
2021/07/20 02:36:11;;;;;;;12.43;7.28;;;16.40;69.60;;;16.03;56.15;95038.47;4999701;28;20231;-86
2021/07/20 02:38:41;;;;;;;11.27;7.18;;;16.50;69.80;;;16.00;56.21;95037.91;4983451;28;20295;-86
2021/07/20 02:41:14;;;;;;;10.20;7.40;;;16.30;69.10;;;15.93;56.22;95033.69;5000552;28;20254;-86
2021/07/20 02:43:48;;;;;;;13.05;6.38;;;16.40;69.90;;;15.90;55.88;95026.22;4984944;28;20262;-85
2021/07/20 02:46:16;;;;;;;10.50;7.15;;;16.30;69.90;;;15.88;55.99;95041.50;4999471;28;20220;-85
2021/07/20 02:48:45;;;;;;;13.27;7.57;;;16.20;70.80;;;15.80;55.97;95032.81;4999610;28;20665;-86
2021/07/20 02:51:18;;;;;;;9.48;7.20;;;16.20;70.00;;;15.74;56.91;95040.81;4999487;28;20266;-85
2021/07/20 02:53:53;;;;;;;12.23;8.00;;;16.20;70.30;;;15.64;57.36;95044.00;5000143;28;20207;-86
2021/07/20 02:56:22;;;;;;;14.05;8.60;;;16.10;70.50;;;15.56;57.45;95041.63;4999397;28;20702;-85
2021/07/20 02:59:02;;;;;;;12.60;8.43;;;16.00;70.50;;;15.44;57.54;95037.06;5000580;28;20657;-86
2021/07/20 03:01:43;;;;;;;12.70;8.13;;;15.90;70.70;;;15.39;57.73;95050.13;5030280;28;20192;-86
2021/07/20 03:04:12;;;;;;;11.18;7.97;;;15.90;70.80;;;15.35;57.84;95070.09;4999958;28;20196;-86
2021/07/20 03:06:45;;;;;;;13.05;8.18;;;15.90;70.80;;;15.29;58.30;95076.25;5016228;28;20192;-85
2021/07/20 03:09:18;;;;;;;14.65;8.88;;;15.80;71.30;;;15.25;59.35;95088.28;4999651;28;20693;-85
2021/07/20 03:11:56;;;;;;;11.07;8.45;;;15.70;71.40;;;15.23;58.94;95091.13;5015715;28;20258;-86
2021/07/20 03:14:27;;;;;;;11.32;8.95;;;15.70;71.80;;;15.23;59.40;95085.84;4999698;28;20216;-86
2021/07/20 03:17:15;;;;;;;15.35;8.25;;;15.70;72.10;;;15.25;58.75;95073.22;5004422;28;20323;-86
2021/07/20 03:19:46;;;;;;;11.55;8.20;;;15.70;71.90;;;15.25;58.27;95065.31;4999535;28;20215;-85
2021/07/20 03:22:24;;;;;;;12.82;8.85;;;15.60;72.00;;;15.28;58.89;95083.38;5000012;28;20195;-86
2021/07/20 03:24:58;;;;;;;13.05;8.25;;;15.60;72.30;;;15.29;59.31;95079.69;5015382;28;20219;-86
2021/07/20 03:27:31;;;;;;;12.02;8.43;;;15.60;72.50;;;15.31;58.73;95085.56;5000733;28;20192;-86
2021/07/20 03:30:05;;;;;;;13.45;8.43;;;15.60;72.80;;;15.32;59.10;95068.69;5004650;28;20285;-86
2021/07/20 03:32:37;;;;;;;12.77;7.63;;;15.60;72.60;;;15.35;58.74;95070.09;4987341;28;20215;-85
2021/07/20 03:35:07;;;;;;;12.27;8.82;;;15.60;72.60;;;15.38;58.39;95064.38;5003482;28;20686;-86
2021/07/20 03:37:36;;;;;;;10.15;7.97;;;15.60;72.40;;;15.43;58.47;95077.75;5002968;28;20713;-86
2021/07/20 03:40:05;;;;;;;12.43;8.48;;;15.70;72.60;;;15.45;58.81;95081.00;5019259;28;20580;-86
2021/07/20 03:42:37;;;;;;;12.07;8.55;;;15.60;72.40;;;15.48;58.49;95075.25;5003985;28;20204;-86
2021/07/20 03:45:07;;;;;;;13.25;7.43;;;15.60;72.30;;;15.52;58.39;95075.63;5002851;28;20694;-85
2021/07/20 03:47:37;;;;;;;10.52;7.30;;;15.60;72.40;;;15.52;58.37;95068.50;5002938;28;20203;-86
2021/07/20 03:50:19;;;;;;;11.55;7.88;;;15.80;72.40;;;15.58;58.66;95064.16;5004037;28;20673;-86
2021/07/20 03:52:49;;;;;;;11.02;8.13;;;15.80;72.80;;;15.60;58.49;95056.84;5002921;28;20721;-86
2021/07/20 03:55:21;;;;;;;11.00;7.85;;;15.70;72.50;;;15.65;58.65;95043.75;5003214;28;20231;-86
2021/07/20 03:57:50;;;;;;;14.38;8.60;;;15.80;72.60;;;15.69;58.40;95044.91;5002821;28;20223;-86
2021/07/20 04:00:19;;;;;;;9.40;7.60;;;15.80;72.60;;;15.76;58.33;95050.16;5002398;28;20219;-85
2021/07/20 04:03:21;;;;;;;12.88;7.90;;;15.80;72.50;;;15.83;58.21;95060.69;5003548;28;20317;-85
2021/07/20 04:06:15;;;;;;;11.57;7.90;;;15.80;72.50;;;15.86;58.15;95065.53;5003255;28;20791;-85
2021/07/20 04:09:11;;;;;;;12.60;9.02;;;15.90;72.50;;;15.89;58.24;95074.88;5035021;28;20200;-86
2021/07/20 04:11:58;;;;;;;12.35;8.65;;;16.00;72.60;;;15.88;58.86;95084.66;5021262;28;20246;-86
2021/07/20 04:14:46;;;;;;;11.07;8.10;;;16.10;72.70;;;15.88;58.68;95081.19;5007719;28;20305;-86
2021/07/20 04:17:15;;;;;;;12.23;8.40;;;16.00;72.70;;;15.88;58.38;95074.06;5035078;28;20211;-86
2021/07/20 04:19:44;;;;;;;13.98;8.32;;;16.10;72.80;;;15.92;58.70;95074.44;5002661;28;20645;-87
2021/07/20 04:22:12;;;;;;;11.10;8.05;;;16.10;72.60;;;15.90;58.73;95069.34;5002435;28;20207;-85
2021/07/20 04:24:40;;;;;;;10.30;7.80;;;16.10;72.70;;;15.94;58.28;95064.41;5001981;28;20212;-86
2021/07/20 04:27:09;;;;;;;11.23;7.97;;;16.10;72.70;;;15.97;57.95;95064.78;5002127;28;20255;-86
2021/07/20 04:29:37;;;;;;;9.95;7.32;;;16.10;72.60;;;16.06;57.99;95069.78;5002059;28;20589;-86
2021/07/20 04:32:08;;;;;;;9.73;7.30;;;16.10;72.60;;;16.08;58.22;95080.97;5034122;28;20265;-86
2021/07/20 04:34:39;;;;;;;11.30;7.60;;;16.20;72.70;;;16.10;57.83;95076.22;5018539;28;20310;-86
2021/07/20 04:37:17;;;;;;;13.43;7.90;;;16.20;72.80;;;16.12;58.07;95079.47;5003253;28;20572;-86
2021/07/20 04:39:50;;;;;;;12.52;7.72;;;16.20;72.60;;;16.12;58.38;95088.22;5002171;28;20229;-86
2021/07/20 04:42:20;;;;;;;10.63;7.55;;;16.20;72.60;;;16.15;58.17;95101.00;5017873;28;20208;-86
2021/07/20 04:44:48;;;;;;;10.80;7.63;;;16.30;72.60;;;16.17;58.38;95116.66;5002258;28;20738;-86
2021/07/20 04:47:32;;;;;;;10.35;7.72;;;16.30;72.50;;;16.19;57.98;95100.56;5006062;28;20223;-86
2021/07/20 04:50:12;;;;;;;9.60;7.03;;;16.30;72.50;;;16.21;57.97;95083.44;5003897;28;20243;-86
2021/07/20 04:52:41;;;;;;;9.40;7.57;;;16.30;72.50;;;16.24;57.84;95080.34;5001615;28;20243;-86
2021/07/20 04:55:10;;;;;;;11.18;7.10;;;16.40;72.50;;;16.28;58.15;95089.47;5001542;28;20299;-86
2021/07/20 04:57:39;;;;;;;9.45;7.70;;;16.40;72.50;;;16.30;57.79;95099.81;5001702;28;20195;-86
2021/07/20 05:00:08;;;;;;;12.13;8.07;;;16.40;72.50;;;16.36;57.63;95109.53;5001810;28;20212;-86
2021/07/20 05:02:40;;;;;;;11.23;7.38;;;16.40;72.50;;;16.40;57.51;95105.38;5001474;28;20200;-86
2021/07/20 05:05:15;;;;;;;10.77;7.15;;;16.50;72.50;;;16.40;57.38;95100.09;5001573;28;20212;-86
2021/07/20 05:07:42;;;;;;;10.23;8.07;;;16.50;72.40;;;16.44;57.08;95100.44;5033703;28;20274;-86
2021/07/20 05:10:14;;;;;;;8.85;7.38;;;16.50;72.50;;;16.47;57.39;95107.97;4985344;28;20212;-86
2021/07/20 05:13:08;;;;;;;9.68;7.00;;;16.50;72.50;;;16.47;57.55;95114.03;5013105;28;20204;-86
2021/07/20 05:15:38;;;;;;;9.85;7.22;;;16.60;72.40;;;16.53;57.59;95111.53;5033185;28;20224;-86
2021/07/20 05:18:13;;;;;;;14.07;7.38;;;16.60;72.40;;;16.53;57.36;95119.47;5002453;28;20200;-86
2021/07/20 05:20:43;;;;;;;9.65;7.20;;;16.60;72.40;;;16.51;57.82;95113.63;4985039;28;20219;-86
2021/07/20 05:23:18;;;;;;;9.73;7.70;;;16.60;72.50;;;16.51;57.79;95117.06;5000783;28;20192;-86
2021/07/20 05:25:59;;;;;;;10.23;7.85;;;16.60;72.50;;;16.48;57.41;95109.56;5000951;28;20240;-86
2021/07/20 05:28:30;;;;;;;11.68;7.18;;;16.60;72.30;;;16.50;57.50;95112.78;5001187;28;20741;-86
2021/07/20 05:31:02;;;;;;;14.20;7.43;;;16.60;72.30;;;16.51;58.03;95108.31;5017345;28;20728;-85
2021/07/20 05:33:32;;;;;;;11.07;7.43;;;16.70;72.30;;;16.53;57.57;95125.59;5017552;28;20193;-86
2021/07/20 05:36:05;;;;;;;8.55;6.80;;;16.60;72.20;;;16.54;57.64;95126.38;5001380;28;20214;-86
2021/07/20 05:38:33;;;;;;;9.10;6.60;;;16.60;72.40;;;16.58;57.72;95128.38;5000639;28;20214;-86
2021/07/20 05:41:20;;;;;;;9.82;6.93;;;16.60;72.30;;;16.65;57.80;95130.94;5006640;28;20207;-86
2021/07/20 05:43:50;;;;;;;9.27;7.53;;;16.70;72.50;;;16.69;57.79;95132.09;5000850;28;20207;-86
2021/07/20 05:46:18;;;;;;;9.95;7.85;;;16.80;72.50;;;16.69;57.42;95136.59;5000169;28;20227;-86
2021/07/20 05:48:48;;;;;;;12.27;8.38;;;16.80;72.50;;;16.71;57.75;95138.00;5000792;28;20228;-86
2021/07/20 05:51:16;;;;;;;12.25;7.65;;;16.70;72.60;;;16.76;57.57;95148.72;5032404;28;20208;-86
2021/07/20 05:53:59;;;;;;;10.85;7.18;;;16.80;72.50;;;16.81;57.35;95134.81;5018854;28;20200;-86
2021/07/20 05:56:48;;;;;;;11.25;7.53;;;16.90;72.70;;;16.85;58.10;95141.25;5005868;28;20589;-86
2021/07/20 05:59:33;;;;;;;12.65;7.47;;;16.80;72.80;;;16.97;57.89;95146.63;5005478;28;20659;-86
2021/07/20 06:02:12;;;;;;;11.43;7.20;;;17.00;73.00;;;17.07;57.86;95144.22;5002032;28;20195;-86
2021/07/20 06:04:40;;;;;;;10.50;7.43;;;17.00;73.00;;;17.20;57.36;95137.94;5000304;28;20266;-85
2021/07/20 06:07:10;;;;;;;10.38;7.75;;;17.10;73.10;;;17.34;57.24;95149.13;5000323;28;20314;-86
2021/07/20 06:09:38;;;;;;;9.43;7.45;;;17.10;72.50;;;17.46;57.09;95146.50;5032573;28;20643;-86
2021/07/20 06:12:08;;;;;;;8.13;6.47;;;17.30;72.90;;;17.67;57.18;95149.63;5000464;28;20731;-86
2021/07/20 06:14:39;;;;;;;10.00;7.30;;;17.30;73.00;;;17.90;57.07;95154.13;4984306;28;20756;-85
2021/07/20 06:17:07;;;;;;;13.20;8.13;;;17.50;73.20;;;18.05;56.77;95151.84;5016514;28;20188;-86
2021/07/20 06:19:37;;;;;;;11.05;7.07;;;17.60;73.00;;;18.22;56.15;95159.88;5016441;28;20212;-86
2021/07/20 06:22:09;;;;;;;10.15;7.65;;;17.80;72.70;;;18.39;56.33;95162.63;4983912;28;20208;-86
2021/07/20 06:24:59;;;;;;;11.65;7.95;;;17.90;72.70;;;18.58;55.82;95161.63;5018508;28;20716;-86
2021/07/20 06:27:27;;;;;;;9.65;7.32;;;18.10;72.80;;;18.73;55.62;95159.28;5016095;28;20227;-86
2021/07/20 06:29:57;;;;;;;9.82;6.97;;;18.20;72.30;;;18.77;55.31;95149.78;4999858;28;20299;-86
2021/07/20 06:32:25;;;;;;;8.35;7.25;;;18.40;72.10;;;18.85;55.07;95145.94;5015703;28;20196;-85
2021/07/20 06:34:53;;;;;;;10.32;7.93;;;18.40;71.90;;;18.92;54.92;95157.28;4999568;28;20721;-86
2021/07/20 06:37:20;;;;;;;9.55;6.65;;;18.50;71.40;;;19.02;55.01;95165.41;4999936;28;20202;-86
2021/07/20 06:39:48;;;;;;;8.90;6.93;;;18.60;71.70;;;19.15;55.04;95163.50;4999805;28;20255;-86
2021/07/20 06:42:18;;;;;;;9.73;6.53;;;18.80;71.50;;;19.26;54.78;95159.16;4999603;28;20739;-86
2021/07/20 06:44:46;;;;;;;8.93;6.53;;;18.90;71.60;;;19.46;54.81;95166.69;4999435;28;20212;-86
2021/07/20 06:47:17;;;;;;;11.50;7.90;;;19.00;71.50;;;19.49;54.17;95156.38;4999588;28;20224;-85
2021/07/20 06:49:49;;;;;;;10.00;6.93;;;19.20;71.90;;;19.56;54.11;95158.84;5000070;28;20220;-87
2021/07/20 06:52:18;;;;;;;10.55;7.28;;;19.20;70.70;;;19.60;54.31;95153.84;4999631;28;20192;-85
2021/07/20 06:54:45;;;;;;;9.93;6.32;;;19.30;70.70;;;19.65;53.59;95160.06;4999669;28;20232;-86
2021/07/20 06:57:17;;;;;;;10.77;7.15;;;19.30;70.20;;;19.64;53.88;95149.66;5016223;28;20188;-86
2021/07/20 06:59:46;;;;;;;8.55;6.78;;;19.40;70.10;;;19.70;53.91;95147.88;4999391;28;20247;-86
2021/07/20 07:02:19;;;;;;;10.48;6.97;;;19.40;70.30;;;19.72;53.38;95159.91;5002055;28;20254;-86
2021/07/20 07:04:58;;;;;;;8.80;6.20;;;19.50;69.80;;;19.75;53.58;95162.09;5003500;28;20219;-86
2021/07/20 07:07:29;;;;;;;10.15;7.25;;;19.50;70.10;;;19.77;52.97;95157.31;5019576;28;20207;-85
2021/07/20 07:09:59;;;;;;;9.02;6.45;;;19.50;69.50;;;19.74;52.91;95155.16;5003323;28;20220;-86
2021/07/20 07:12:27;;;;;;;10.82;6.82;;;19.60;69.40;;;19.72;53.34;95151.91;5019444;28;20642;-85
2021/07/20 07:14:56;;;;;;;10.10;6.45;;;19.60;69.50;;;19.72;53.56;95149.25;5003424;28;20200;-86
2021/07/20 07:17:23;;;;;;;7.63;6.63;;;19.60;69.60;;;19.76;53.00;95150.38;5019553;28;20188;-86
2021/07/20 07:19:53;;;;;;;8.38;6.43;;;19.60;69.80;;;19.84;53.88;95151.84;5003189;28;20752;-86
2021/07/20 07:22:22;;;;;;;8.65;6.90;;;19.60;70.00;;;19.91;53.42;95157.81;4986993;28;20235;-85
2021/07/20 07:24:53;;;;;;;9.95;7.13;;;19.60;69.70;;;20.05;52.60;95155.59;5003099;28;20254;-85
2021/07/20 07:27:23;;;;;;;8.88;6.57;;;19.70;69.40;;;20.18;52.93;95151.78;5019510;28;20235;-86
2021/07/20 07:29:55;;;;;;;9.98;6.85;;;19.80;70.00;;;20.36;52.48;95137.38;5002801;28;20216;-86
2021/07/20 07:32:22;;;;;;;9.00;6.47;;;19.90;69.30;;;20.51;52.59;95138.56;5003309;28;20196;-86
2021/07/20 07:34:49;;;;;;;11.35;7.03;;;20.00;69.90;;;20.74;52.46;95149.00;5003028;28;20247;-86
2021/07/20 07:37:22;;;;;;;10.75;7.60;;;20.10;70.00;;;20.91;51.97;95145.44;4986869;28;20231;-86
2021/07/20 07:39:53;;;;;;;8.93;6.93;;;20.20;69.30;;;21.14;52.06;95148.88;5019633;28;20266;-86
2021/07/20 07:42:22;;;;;;;10.65;7.43;;;20.40;69.60;;;21.33;51.32;95143.97;5002820;28;20649;-86
2021/07/20 07:44:52;;;;;;;9.75;7.22;;;20.60;69.30;;;21.58;51.66;95144.22;5002731;28;20219;-86
2021/07/20 07:47:21;;;;;;;9.25;6.57;;;20.70;69.60;;;21.84;50.77;95147.06;5002542;28;20232;-86
2021/07/20 07:49:49;;;;;;;8.35;6.85;;;20.90;69.00;;;22.03;50.05;95143.94;5035038;28;20650;-87
2021/07/20 07:52:16;;;;;;;9.30;6.68;;;21.10;68.60;;;22.20;50.31;95143.78;5002701;28;20192;-85
2021/07/20 07:54:48;;;;;;;9.23;6.35;;;21.40;69.00;;;22.34;50.18;95144.91;5002528;28;20229;-85
2021/07/20 07:57:19;;;;;;;7.80;5.90;;;21.50;68.50;;;22.44;50.06;95140.72;5002375;28;20197;-86
2021/07/20 07:59:52;;;;;;;10.00;6.88;;;21.70;68.10;;;22.54;49.97;95138.06;5002711;28;20238;-86
2021/07/20 08:02:29;;;;;;;8.05;5.90;;;21.80;68.00;;;22.63;49.88;95141.03;5019246;28;20202;-86
2021/07/20 08:05:00;;;;;;;8.43;6.90;;;21.90;67.80;;;22.71;49.62;95140.53;5018876;28;20219;-86
2021/07/20 08:07:28;;;;;;;7.10;6.00;;;22.00;67.40;;;22.81;49.57;95142.44;5002063;28;20276;-86
2021/07/20 08:09:58;;;;;;;8.98;6.35;;;22.20;67.60;;;22.90;49.04;95138.19;5002372;28;20461;-86
2021/07/20 08:12:28;;;;;;;7.53;6.07;;;22.20;66.90;;;22.97;48.79;95137.91;5001591;28;20311;-85
2021/07/20 08:14:56;;;;;;;7.25;6.13;;;22.30;66.50;;;23.01;48.46;95136.34;5034380;28;20219;-86
2021/07/20 08:17:25;;;;;;;7.38;6.05;;;22.40;66.60;;;23.07;48.50;95145.16;5001660;28;20272;-86
2021/07/20 08:19:58;;;;;;;7.80;6.65;;;22.50;66.60;;;23.06;48.34;95128.31;5001958;28;20230;-86
2021/07/20 08:22:26;;;;;;;6.95;5.75;;;22.60;66.40;;;23.10;48.46;95137.41;5001932;28;20294;-86
2021/07/20 08:25:32;;;;;;;6.88;5.80;;;22.60;66.40;;;23.13;48.59;95144.91;5002186;28;20547;-86
2021/07/20 08:28:06;;;;;;;9.32;6.00;;;22.70;66.00;;;23.23;47.63;95141.47;5000794;28;20230;-87
2021/07/20 08:30:47;;;;;;;10.45;6.53;;;22.70;65.60;;;23.22;46.41;95144.41;5002164;28;20250;-87
2021/07/20 08:33:23;;;;;;;9.70;6.00;;;22.80;65.60;;;23.21;46.60;95148.16;5001947;28;20180;-87
2021/07/20 08:35:55;;;;;;;6.45;5.78;;;22.80;65.50;;;23.16;47.09;95147.06;5002110;28;20235;-86
2021/07/20 08:38:24;;;;;;;13.27;6.18;;;22.80;65.60;;;23.17;47.08;95155.94;5017850;28;20195;-86
2021/07/20 08:41:08;;;;;;;7.45;6.10;;;22.80;65.20;;;23.20;46.75;95146.56;5018128;28;20224;-86
2021/07/20 08:44:08;;;;;;;6.50;5.47;;;22.80;64.60;;;23.22;47.10;95147.06;5018308;28;20188;-86
2021/07/20 08:46:52;;;;;;;8.05;5.68;;;22.80;65.20;;;23.32;47.07;95147.09;4985274;28;20220;-86
2021/07/20 08:49:57;;;;;;;6.13;5.53;;;22.90;65.00;;;23.38;46.47;95137.22;4985208;28;20243;-86
2021/07/20 08:52:35;;;;;;;7.97;5.75;;;22.90;65.00;;;23.42;46.26;95148.97;5017476;28;20238;-86
2021/07/20 08:55:39;;;;;;;6.95;6.05;;;23.00;64.30;;;23.40;46.71;95140.41;5001547;28;20228;-86
2021/07/20 08:58:25;;;;;;;7.28;6.18;;;23.00;64.20;;;23.34;45.61;95142.28;4987530;28;20199;-86
2021/07/20 09:01:00;;;;;;;6.57;5.55;;;23.00;63.70;;;23.28;45.61;95149.50;5017714;28;20216;-87
2021/07/20 09:03:35;;;;;;;6.57;5.30;;;23.00;63.90;;;23.20;45.73;95150.03;5017583;28;20745;-86
2021/07/20 09:06:07;;;;;;;7.53;6.22;;;23.00;63.70;;;23.21;45.83;95142.81;5001099;28;20218;-86
2021/07/20 09:09:00;;;;;;;7.72;6.40;;;22.90;63.60;;;23.16;45.82;95147.06;5001117;28;20271;-85
2021/07/20 09:11:45;;;;;;;8.52;6.10;;;22.90;63.70;;;23.16;45.74;95138.22;5017589;28;20198;-85
2021/07/20 09:14:43;;;;;;;7.00;5.80;;;22.90;63.60;;;23.23;45.94;95138.81;5001166;28;20198;-86
2021/07/20 09:17:34;;;;;;;7.82;6.65;;;22.90;63.90;;;23.22;45.49;95139.88;5000962;28;20200;-86
2021/07/20 09:20:16;;;;;;;9.05;6.88;;;22.90;63.60;;;23.20;44.98;95143.88;4984957;28;20252;-86
2021/07/20 09:23:15;;;;;;;8.88;7.13;;;22.90;63.00;;;23.14;45.27;95143.03;5017083;28;20669;-87
2021/07/20 09:25:54;;;;;;;8.70;7.03;;;22.90;63.00;;;23.20;45.32;95142.00;4999958;28;20326;-86
2021/07/20 09:28:50;;;;;;;8.45;6.70;;;22.90;63.60;;;23.21;44.76;95146.28;5033727;28;20223;-87
2021/07/20 09:31:31;;;;;;;8.98;7.35;;;22.90;63.20;;;23.23;45.09;95144.16;4984471;28;20259;-86
2021/07/20 09:34:25;;;;;;;8.85;7.13;;;22.90;63.20;;;23.30;45.23;95138.53;5000799;28;20226;-87
2021/07/20 09:37:09;;;;;;;9.38;7.53;;;22.90;63.50;;;23.43;45.32;95146.03;5016875;28;20242;-87
2021/07/20 09:40:11;;;;;;;9.10;7.63;;;22.90;63.40;;;23.64;45.26;95135.31;5000788;28;20219;-87
2021/07/20 09:43:04;;;;;;;9.25;8.15;;;23.00;62.70;;;23.81;44.49;95129.66;5000378;28;20217;-86
2021/07/20 09:45:42;;;;;;;9.27;7.57;;;23.10;63.30;;;24.01;44.76;95128.06;5000346;28;20228;-87
2021/07/20 09:48:22;;;;;;;9.10;7.70;;;23.30;63.60;;;24.20;44.02;95133.63;5000162;28;20230;-86
2021/07/20 09:51:07;;;;;;;9.38;7.43;;;23.40;63.10;;;24.42;44.51;95138.66;5032999;28;20224;-86
2021/07/20 09:54:23;;;;;;;10.32;8.05;;;23.60;64.00;;;24.66;44.34;95125.44;5016284;28;20208;-86
2021/07/20 09:57:19;;;;;;;10.27;8.05;;;23.70;63.60;;;24.89;43.90;95131.19;4994274;28;20208;-86
2021/07/20 10:00:09;;;;;;;10.20;8.45;;;23.90;63.30;;;25.08;44.16;95118.75;5000535;28;20220;-86
2021/07/20 10:02:47;;;;;;;11.27;8.50;;;24.10;63.60;;;25.26;43.42;95119.16;5000157;28;20219;-86
2021/07/20 10:05:26;;;;;;;9.65;7.93;;;24.30;63.00;;;25.36;43.15;95127.13;5000172;28;20277;-85
2021/07/20 10:07:59;;;;;;;10.80;8.48;;;24.50;63.00;;;25.45;42.94;95121.19;5000248;28;20222;-86
2021/07/20 10:10:37;;;;;;;12.38;9.30;;;24.60;62.70;;;25.61;42.67;95120.00;5032492;28;20235;-87
2021/07/20 10:13:20;;;;;;;11.50;9.32;;;24.70;62.30;;;25.79;42.73;95123.84;5000015;28;20195;-85
2021/07/20 10:16:02;;;;;;;12.48;9.10;;;24.90;61.90;;;25.91;42.15;95118.09;5000039;28;20231;-87
2021/07/20 10:18:41;;;;;;;12.10;8.93;;;25.00;62.10;;;26.00;41.76;95129.00;5033796;28;20542;-87
2021/07/20 10:21:15;;;;;;;9.50;8.20;;;25.10;61.70;;;26.07;41.91;95126.03;4999821;28;20319;-86
2021/07/20 10:23:59;;;;;;;10.05;8.50;;;25.20;61.70;;;26.08;41.83;95122.25;4999836;28;20203;-86
2021/07/20 10:26:46;;;;;;;9.80;7.80;;;25.40;61.50;;;26.08;42.29;95123.06;5016134;28;20639;-86
2021/07/20 10:30:01;;;;;;;10.07;7.85;;;25.50;61.70;;;26.08;42.45;95124.94;4999673;28;20279;-85
2021/07/20 10:33:00;;;;;;;8.85;7.47;;;25.50;61.80;;;26.13;42.23;95123.00;5016065;28;20279;-86
2021/07/20 10:35:51;;;;;;;10.30;8.10;;;25.50;61.50;;;26.15;42.13;95125.41;4983179;28;20699;-86
2021/07/20 10:38:27;;;;;;;10.93;8.23;;;25.60;61.20;;;26.23;41.61;95121.28;4999617;28;20197;-86
2021/07/20 10:40:56;;;;;;;10.65;7.78;;;25.70;60.70;;;26.25;41.22;95117.22;4999782;28;20217;-86
2021/07/20 10:43:29;;;;;;;8.73;7.50;;;25.70;60.80;;;26.32;41.33;95128.44;5015596;28;20198;-86
2021/07/20 10:45:57;;;;;;;9.40;7.55;;;25.70;60.50;;;26.33;41.42;95126.53;4983363;28;20308;-86
2021/07/20 10:48:30;;;;;;;9.60;7.55;;;25.70;60.90;;;26.34;41.01;95125.44;4999192;28;20221;-85
2021/07/20 10:51:11;;;;;;;9.02;7.35;;;25.80;60.20;;;26.30;40.93;95127.91;5032257;28;20210;-86
2021/07/20 10:54:03;;;;;;;9.73;7.30;;;25.80;60.10;;;26.25;41.14;95124.50;4999585;28;20257;-87